sensor_id;sensor_type;location;lat;lon;timestamp;temperature;humidity
18884;DHT22;9574;47.282;9.640;2022-12-10T00:01:05;3.60;99.90
18884;DHT22;9574;47.282;9.640;2022-12-10T00:03:33;3.50;99.90
18884;DHT22;9574;47.282;9.640;2022-12-10T00:06:03;3.50;99.90
18884;DHT22;9574;47.282;9.640;2022-12-10T00:08:31;3.60;99.90
18884;DHT22;9574;47.282;9.640;2022-12-10T00:10:58;3.60;99.90
18884;DHT22;9574;47.282;9.640;2022-12-10T00:13:25;3.60;99.90
18884;DHT22;9574;47.282;9.640;2022-12-10T00:15:52;3.60;99.90
18884;DHT22;9574;47.282;9.640;2022-12-10T00:18:19;3.60;99.90
18884;DHT22;9574;47.282;9.640;2022-12-10T00:20:46;3.50;99.90
18884;DHT22;9574;47.282;9.640;2022-12-10T00:23:14;3.40;99.90
18884;DHT22;9574;47.282;9.640;2022-12-10T00:25:41;3.10;99.90
18884;DHT22;9574;47.282;9.640;2022-12-10T00:28:08;2.90;99.90
18884;DHT22;9574;47.282;9.640;2022-12-10T00:30:35;2.60;99.90
18884;DHT22;9574;47.282;9.640;2022-12-10T00:33:03;2.70;99.90
18884;DHT22;9574;47.282;9.640;2022-12-10T00:35:30;2.70;99.90
18884;DHT22;9574;47.282;9.640;2022-12-10T00:37:57;2.60;99.90
18884;DHT22;9574;47.282;9.640;2022-12-10T00:40:25;2.40;99.90
18884;DHT22;9574;47.282;9.640;2022-12-10T00:42:53;2.40;99.90
18884;DHT22;9574;47.282;9.640;2022-12-10T00:45:20;2.40;99.90
18884;DHT22;9574;47.282;9.640;2022-12-10T00:47:47;2.30;99.90
18884;DHT22;9574;47.282;9.640;2022-12-10T00:50:14;2.60;99.90
18884;DHT22;9574;47.282;9.640;2022-12-10T00:52:41;2.60;99.90
18884;DHT22;9574;47.282;9.640;2022-12-10T00:55:08;2.50;99.90
18884;DHT22;9574;47.282;9.640;2022-12-10T00:57:36;2.40;99.90
18884;DHT22;9574;47.282;9.640;2022-12-10T01:00:04;2.40;99.90
18884;DHT22;9574;47.282;9.640;2022-12-10T01:02:32;2.30;99.90
18884;DHT22;9574;47.282;9.640;2022-12-10T01:04:59;2.30;99.90
18884;DHT22;9574;47.282;9.640;2022-12-10T01:07:26;2.30;99.90
18884;DHT22;9574;47.282;9.640;2022-12-10T01:09:53;2.40;99.90
18884;DHT22;9574;47.282;9.640;2022-12-10T01:12:20;2.60;99.90
18884;DHT22;9574;47.282;9.640;2022-12-10T01:14:48;2.90;99.90
18884;DHT22;9574;47.282;9.640;2022-12-10T01:17:15;3.00;99.90
18884;DHT22;9574;47.282;9.640;2022-12-10T01:19:42;3.20;99.90
18884;DHT22;9574;47.282;9.640;2022-12-10T01:22:09;3.30;99.90
18884;DHT22;9574;47.282;9.640;2022-12-10T01:24:36;3.30;99.90
18884;DHT22;9574;47.282;9.640;2022-12-10T01:27:03;3.20;99.90
18884;DHT22;9574;47.282;9.640;2022-12-10T01:29:30;3.20;99.90
18884;DHT22;9574;47.282;9.640;2022-12-10T01:31:58;3.30;99.90
18884;DHT22;9574;47.282;9.640;2022-12-10T01:34:26;3.30;99.90
18884;DHT22;9574;47.282;9.640;2022-12-10T01:36:54;3.40;99.90
18884;DHT22;9574;47.282;9.640;2022-12-10T01:39:22;3.30;99.90
18884;DHT22;9574;47.282;9.640;2022-12-10T01:41:52;3.20;99.90
18884;DHT22;9574;47.282;9.640;2022-12-10T01:44:57;3.20;99.90
18884;DHT22;9574;47.282;9.640;2022-12-10T01:47:26;3.20;99.90
18884;DHT22;9574;47.282;9.640;2022-12-10T01:49:53;3.20;99.90
18884;DHT22;9574;47.282;9.640;2022-12-10T01:52:20;3.00;99.90
18884;DHT22;9574;47.282;9.640;2022-12-10T01:54:47;3.20;99.90
18884;DHT22;9574;47.282;9.640;2022-12-10T01:57:16;3.20;99.90
18884;DHT22;9574;47.282;9.640;2022-12-10T01:59:45;3.30;99.90
18884;DHT22;9574;47.282;9.640;2022-12-10T02:02:18;3.00;99.90
18884;DHT22;9574;47.282;9.640;2022-12-10T02:04:56;2.80;99.90
18884;DHT22;9574;47.282;9.640;2022-12-10T02:07:30;2.60;99.90
18884;DHT22;9574;47.282;9.640;2022-12-10T02:10:04;2.40;99.90
18884;DHT22;9574;47.282;9.640;2022-12-10T02:12:38;2.30;99.90
18884;DHT22;9574;47.282;9.640;2022-12-10T02:15:13;2.40;99.90
18884;DHT22;9574;47.282;9.640;2022-12-10T02:17:44;2.40;99.90
18884;DHT22;9574;47.282;9.640;2022-12-10T02:20:17;2.80;99.90
18884;DHT22;9574;47.282;9.640;2022-12-10T02:22:48;2.90;99.90
18884;DHT22;9574;47.282;9.640;2022-12-10T02:25:20;2.80;99.90
18884;DHT22;9574;47.282;9.640;2022-12-10T02:27:53;2.60;99.90
18884;DHT22;9574;47.282;9.640;2022-12-10T02:30:22;2.50;99.90
18884;DHT22;9574;47.282;9.640;2022-12-10T02:32:50;2.40;99.90
18884;DHT22;9574;47.282;9.640;2022-12-10T02:35:21;2.70;99.90
18884;DHT22;9574;47.282;9.640;2022-12-10T02:37:51;2.60;99.90
18884;DHT22;9574;47.282;9.640;2022-12-10T02:40:23;2.50;99.90
18884;DHT22;9574;47.282;9.640;2022-12-10T02:42:52;2.40;99.90
18884;DHT22;9574;47.282;9.640;2022-12-10T02:45:23;2.40;99.90
18884;DHT22;9574;47.282;9.640;2022-12-10T02:47:53;2.70;99.90
18884;DHT22;9574;47.282;9.640;2022-12-10T02:50:21;2.80;99.90
18884;DHT22;9574;47.282;9.640;2022-12-10T02:52:48;2.80;99.90
18884;DHT22;9574;47.282;9.640;2022-12-10T02:55:15;2.70;99.90
18884;DHT22;9574;47.282;9.640;2022-12-10T02:57:56;2.90;99.90
18884;DHT22;9574;47.282;9.640;2022-12-10T03:00:27;3.10;99.90
18884;DHT22;9574;47.282;9.640;2022-12-10T03:03:17;3.20;99.90
18884;DHT22;9574;47.282;9.640;2022-12-10T03:05:55;3.30;99.90
18884;DHT22;9574;47.282;9.640;2022-12-10T03:08:28;3.30;99.90
18884;DHT22;9574;47.282;9.640;2022-12-10T03:11:00;3.30;99.90
18884;DHT22;9574;47.282;9.640;2022-12-10T03:13:32;3.30;99.90
18884;DHT22;9574;47.282;9.640;2022-12-10T03:16:04;3.30;99.90
18884;DHT22;9574;47.282;9.640;2022-12-10T03:18:34;3.30;99.90
18884;DHT22;9574;47.282;9.640;2022-12-10T03:21:04;3.30;99.90
18884;DHT22;9574;47.282;9.640;2022-12-10T03:23:34;3.20;99.90
18884;DHT22;9574;47.282;9.640;2022-12-10T03:26:02;3.00;99.90
18884;DHT22;9574;47.282;9.640;2022-12-10T03:28:32;2.90;99.90
18884;DHT22;9574;47.282;9.640;2022-12-10T03:31:02;3.00;99.90
18884;DHT22;9574;47.282;9.640;2022-12-10T03:33:30;3.10;99.90
18884;DHT22;9574;47.282;9.640;2022-12-10T03:35:58;2.70;99.90
18884;DHT22;9574;47.282;9.640;2022-12-10T03:38:25;2.50;99.90
18884;DHT22;9574;47.282;9.640;2022-12-10T03:40:52;2.40;99.90
18884;DHT22;9574;47.282;9.640;2022-12-10T03:43:21;2.50;99.90
18884;DHT22;9574;47.282;9.640;2022-12-10T03:45:48;2.40;99.90
18884;DHT22;9574;47.282;9.640;2022-12-10T03:48:16;2.30;99.90
18884;DHT22;9574;47.282;9.640;2022-12-10T03:50:43;2.40;99.90
18884;DHT22;9574;47.282;9.640;2022-12-10T03:53:10;2.40;99.90
18884;DHT22;9574;47.282;9.640;2022-12-10T03:55:37;2.20;99.90
18884;DHT22;9574;47.282;9.640;2022-12-10T03:58:04;2.20;99.90
18884;DHT22;9574;47.282;9.640;2022-12-10T04:00:31;2.20;99.90
18884;DHT22;9574;47.282;9.640;2022-12-10T04:02:58;2.40;99.90
18884;DHT22;9574;47.282;9.640;2022-12-10T04:05:26;2.60;99.90
18884;DHT22;9574;47.282;9.640;2022-12-10T04:07:53;2.80;99.90
18884;DHT22;9574;47.282;9.640;2022-12-10T04:10:21;3.00;99.90
18884;DHT22;9574;47.282;9.640;2022-12-10T04:12:47;3.10;99.90
18884;DHT22;9574;47.282;9.640;2022-12-10T04:15:38;3.10;99.90
18884;DHT22;9574;47.282;9.640;2022-12-10T04:18:22;2.90;99.90
18884;DHT22;9574;47.282;9.640;2022-12-10T04:20:50;2.70;99.90
18884;DHT22;9574;47.282;9.640;2022-12-10T04:23:37;2.70;99.90
18884;DHT22;9574;47.282;9.640;2022-12-10T04:26:22;2.90;99.90
18884;DHT22;9574;47.282;9.640;2022-12-10T04:29:07;3.10;99.90
18884;DHT22;9574;47.282;9.640;2022-12-10T04:31:34;3.20;99.90
18884;DHT22;9574;47.282;9.640;2022-12-10T04:34:01;3.30;99.90
18884;DHT22;9574;47.282;9.640;2022-12-10T04:36:29;3.20;99.90
18884;DHT22;9574;47.282;9.640;2022-12-10T04:38:56;3.30;99.90
18884;DHT22;9574;47.282;9.640;2022-12-10T04:41:23;3.30;99.90
18884;DHT22;9574;47.282;9.640;2022-12-10T04:43:51;3.30;99.90
18884;DHT22;9574;47.282;9.640;2022-12-10T04:46:18;3.20;99.90
18884;DHT22;9574;47.282;9.640;2022-12-10T04:48:45;3.20;99.90
18884;DHT22;9574;47.282;9.640;2022-12-10T04:51:12;3.10;99.90
18884;DHT22;9574;47.282;9.640;2022-12-10T04:53:41;3.10;99.90
18884;DHT22;9574;47.282;9.640;2022-12-10T04:56:07;2.90;99.90
18884;DHT22;9574;47.282;9.640;2022-12-10T04:58:34;2.90;99.90
18884;DHT22;9574;47.282;9.640;2022-12-10T05:01:02;2.90;99.90
18884;DHT22;9574;47.282;9.640;2022-12-10T05:03:30;2.90;99.90
18884;DHT22;9574;47.282;9.640;2022-12-10T05:06:00;2.90;99.90
18884;DHT22;9574;47.282;9.640;2022-12-10T05:08:28;2.90;99.90
18884;DHT22;9574;47.282;9.640;2022-12-10T05:11:00;3.00;99.90
18884;DHT22;9574;47.282;9.640;2022-12-10T05:13:27;3.10;99.90
18884;DHT22;9574;47.282;9.640;2022-12-10T05:15:54;3.10;99.90
18884;DHT22;9574;47.282;9.640;2022-12-10T05:18:21;3.10;99.90
18884;DHT22;9574;47.282;9.640;2022-12-10T05:20:49;3.00;99.90
18884;DHT22;9574;47.282;9.640;2022-12-10T05:23:16;3.10;99.90
18884;DHT22;9574;47.282;9.640;2022-12-10T05:26:03;3.00;99.90
18884;DHT22;9574;47.282;9.640;2022-12-10T05:28:32;3.10;99.90
18884;DHT22;9574;47.282;9.640;2022-12-10T05:30:59;3.00;99.90
18884;DHT22;9574;47.282;9.640;2022-12-10T05:33:27;3.10;99.90
18884;DHT22;9574;47.282;9.640;2022-12-10T05:35:55;3.20;99.90
18884;DHT22;9574;47.282;9.640;2022-12-10T05:38:23;3.20;99.90
18884;DHT22;9574;47.282;9.640;2022-12-10T05:40:50;3.30;99.90
18884;DHT22;9574;47.282;9.640;2022-12-10T05:43:19;3.30;99.90
18884;DHT22;9574;47.282;9.640;2022-12-10T05:45:46;3.20;99.90
18884;DHT22;9574;47.282;9.640;2022-12-10T05:48:15;3.30;99.90
18884;DHT22;9574;47.282;9.640;2022-12-10T05:50:43;3.20;99.90
18884;DHT22;9574;47.282;9.640;2022-12-10T05:53:10;3.30;99.90
18884;DHT22;9574;47.282;9.640;2022-12-10T05:55:39;3.30;99.90
18884;DHT22;9574;47.282;9.640;2022-12-10T05:58:06;3.20;99.90
18884;DHT22;9574;47.282;9.640;2022-12-10T06:00:38;3.20;99.90
18884;DHT22;9574;47.282;9.640;2022-12-10T06:03:05;3.20;99.90
18884;DHT22;9574;47.282;9.640;2022-12-10T06:05:36;3.20;99.90
18884;DHT22;9574;47.282;9.640;2022-12-10T06:08:03;3.20;99.90
18884;DHT22;9574;47.282;9.640;2022-12-10T06:10:30;3.20;99.90
18884;DHT22;9574;47.282;9.640;2022-12-10T06:12:57;3.20;99.90
18884;DHT22;9574;47.282;9.640;2022-12-10T06:15:24;3.20;99.90
18884;DHT22;9574;47.282;9.640;2022-12-10T06:17:54;3.10;99.90
18884;DHT22;9574;47.282;9.640;2022-12-10T06:20:21;3.10;99.90
18884;DHT22;9574;47.282;9.640;2022-12-10T06:22:48;3.10;99.90
18884;DHT22;9574;47.282;9.640;2022-12-10T06:25:15;2.90;99.90
18884;DHT22;9574;47.282;9.640;2022-12-10T06:27:42;3.00;99.90
18884;DHT22;9574;47.282;9.640;2022-12-10T06:30:10;3.10;99.90
18884;DHT22;9574;47.282;9.640;2022-12-10T06:32:37;3.10;99.90
18884;DHT22;9574;47.282;9.640;2022-12-10T06:35:07;3.10;99.90
18884;DHT22;9574;47.282;9.640;2022-12-10T06:37:34;3.10;99.90
18884;DHT22;9574;47.282;9.640;2022-12-10T06:40:01;3.10;99.90
18884;DHT22;9574;47.282;9.640;2022-12-10T06:42:28;3.10;99.90
18884;DHT22;9574;47.282;9.640;2022-12-10T06:44:55;3.10;99.90
18884;DHT22;9574;47.282;9.640;2022-12-10T06:47:22;3.10;99.90
18884;DHT22;9574;47.282;9.640;2022-12-10T06:49:49;3.10;99.90
18884;DHT22;9574;47.282;9.640;2022-12-10T06:52:17;3.10;99.90
18884;DHT22;9574;47.282;9.640;2022-12-10T06:54:44;3.20;99.90
18884;DHT22;9574;47.282;9.640;2022-12-10T06:57:11;3.20;99.90
18884;DHT22;9574;47.282;9.640;2022-12-10T06:59:38;3.10;99.90
18884;DHT22;9574;47.282;9.640;2022-12-10T07:02:05;3.20;99.90
18884;DHT22;9574;47.282;9.640;2022-12-10T07:04:32;3.10;99.90
18884;DHT22;9574;47.282;9.640;2022-12-10T07:06:59;2.90;99.90
18884;DHT22;9574;47.282;9.640;2022-12-10T07:09:27;2.70;99.90
18884;DHT22;9574;47.282;9.640;2022-12-10T07:11:54;2.50;99.90
18884;DHT22;9574;47.282;9.640;2022-12-10T07:14:21;2.50;99.90
18884;DHT22;9574;47.282;9.640;2022-12-10T07:16:48;2.60;99.90
18884;DHT22;9574;47.282;9.640;2022-12-10T07:19:15;2.40;99.90
18884;DHT22;9574;47.282;9.640;2022-12-10T07:21:42;2.30;99.90
18884;DHT22;9574;47.282;9.640;2022-12-10T07:24:12;2.20;99.90
18884;DHT22;9574;47.282;9.640;2022-12-10T07:26:42;2.10;99.90
18884;DHT22;9574;47.282;9.640;2022-12-10T07:29:13;2.10;99.90
18884;DHT22;9574;47.282;9.640;2022-12-10T07:31:41;2.00;99.90
18884;DHT22;9574;47.282;9.640;2022-12-10T07:34:09;2.00;99.90
18884;DHT22;9574;47.282;9.640;2022-12-10T07:36:36;2.00;99.90
18884;DHT22;9574;47.282;9.640;2022-12-10T07:39:05;2.30;99.90
18884;DHT22;9574;47.282;9.640;2022-12-10T07:41:33;2.30;99.90
18884;DHT22;9574;47.282;9.640;2022-12-10T07:44:03;2.30;99.90
18884;DHT22;9574;47.282;9.640;2022-12-10T07:46:32;2.40;99.90
18884;DHT22;9574;47.282;9.640;2022-12-10T07:49:01;2.40;99.90
18884;DHT22;9574;47.282;9.640;2022-12-10T07:51:28;2.50;99.90
18884;DHT22;9574;47.282;9.640;2022-12-10T07:53:56;2.60;99.90
18884;DHT22;9574;47.282;9.640;2022-12-10T07:56:23;2.80;99.90
18884;DHT22;9574;47.282;9.640;2022-12-10T07:58:51;2.70;99.90
18884;DHT22;9574;47.282;9.640;2022-12-10T08:01:21;2.60;99.90
18884;DHT22;9574;47.282;9.640;2022-12-10T08:03:49;2.80;99.90
18884;DHT22;9574;47.282;9.640;2022-12-10T08:06:18;2.90;99.90
18884;DHT22;9574;47.282;9.640;2022-12-10T08:08:45;2.90;99.90
18884;DHT22;9574;47.282;9.640;2022-12-10T08:11:14;2.90;99.90
18884;DHT22;9574;47.282;9.640;2022-12-10T08:13:43;3.00;99.90
18884;DHT22;9574;47.282;9.640;2022-12-10T08:16:12;3.10;99.90
18884;DHT22;9574;47.282;9.640;2022-12-10T08:18:41;3.10;99.90
18884;DHT22;9574;47.282;9.640;2022-12-10T08:21:10;3.10;99.90
18884;DHT22;9574;47.282;9.640;2022-12-10T08:23:38;3.10;99.90
18884;DHT22;9574;47.282;9.640;2022-12-10T08:26:05;3.20;99.90
18884;DHT22;9574;47.282;9.640;2022-12-10T08:28:33;3.20;99.90
18884;DHT22;9574;47.282;9.640;2022-12-10T08:31:00;3.20;99.90
18884;DHT22;9574;47.282;9.640;2022-12-10T08:33:27;3.20;99.90
18884;DHT22;9574;47.282;9.640;2022-12-10T08:35:59;3.20;99.90
18884;DHT22;9574;47.282;9.640;2022-12-10T08:38:26;3.20;99.90
18884;DHT22;9574;47.282;9.640;2022-12-10T08:40:53;3.20;99.90
18884;DHT22;9574;47.282;9.640;2022-12-10T08:43:20;3.20;99.90
18884;DHT22;9574;47.282;9.640;2022-12-10T08:45:47;3.10;99.90
18884;DHT22;9574;47.282;9.640;2022-12-10T08:48:14;3.20;99.90
18884;DHT22;9574;47.282;9.640;2022-12-10T08:50:41;3.20;99.90
18884;DHT22;9574;47.282;9.640;2022-12-10T08:53:10;3.00;99.90
18884;DHT22;9574;47.282;9.640;2022-12-10T08:55:38;2.90;99.90
18884;DHT22;9574;47.282;9.640;2022-12-10T08:58:05;2.80;99.90
18884;DHT22;9574;47.282;9.640;2022-12-10T09:00:32;2.80;99.90
18884;DHT22;9574;47.282;9.640;2022-12-10T09:02:59;2.70;99.90
18884;DHT22;9574;47.282;9.640;2022-12-10T09:05:26;2.90;99.90
18884;DHT22;9574;47.282;9.640;2022-12-10T09:07:53;2.90;99.90
18884;DHT22;9574;47.282;9.640;2022-12-10T09:10:21;3.00;99.90
18884;DHT22;9574;47.282;9.640;2022-12-10T09:12:48;3.10;99.90
18884;DHT22;9574;47.282;9.640;2022-12-10T09:15:15;3.10;99.90
18884;DHT22;9574;47.282;9.640;2022-12-10T09:17:42;3.20;99.90
18884;DHT22;9574;47.282;9.640;2022-12-10T09:20:09;3.20;99.90
18884;DHT22;9574;47.282;9.640;2022-12-10T09:22:36;3.20;99.90
18884;DHT22;9574;47.282;9.640;2022-12-10T09:25:04;3.20;99.90
18884;DHT22;9574;47.282;9.640;2022-12-10T09:27:33;3.30;99.90
18884;DHT22;9574;47.282;9.640;2022-12-10T09:30:00;3.40;99.90
18884;DHT22;9574;47.282;9.640;2022-12-10T09:32:27;3.40;99.90
18884;DHT22;9574;47.282;9.640;2022-12-10T09:34:54;3.40;99.90
18884;DHT22;9574;47.282;9.640;2022-12-10T09:37:21;3.40;99.90
18884;DHT22;9574;47.282;9.640;2022-12-10T09:39:47;3.40;99.90
18884;DHT22;9574;47.282;9.640;2022-12-10T09:42:25;3.50;99.90
18884;DHT22;9574;47.282;9.640;2022-12-10T09:45:02;3.40;99.90
18884;DHT22;9574;47.282;9.640;2022-12-10T09:47:36;3.40;99.90
18884;DHT22;9574;47.282;9.640;2022-12-10T09:50:11;3.40;99.90
18884;DHT22;9574;47.282;9.640;2022-12-10T09:52:41;3.50;99.90
18884;DHT22;9574;47.282;9.640;2022-12-10T09:55:12;3.40;99.90
18884;DHT22;9574;47.282;9.640;2022-12-10T09:57:42;3.50;99.90
18884;DHT22;9574;47.282;9.640;2022-12-10T10:00:21;3.60;99.90
18884;DHT22;9574;47.282;9.640;2022-12-10T10:02:49;3.60;99.90
18884;DHT22;9574;47.282;9.640;2022-12-10T10:05:21;3.50;99.90
18884;DHT22;9574;47.282;9.640;2022-12-10T10:07:52;3.50;99.90
18884;DHT22;9574;47.282;9.640;2022-12-10T10:10:24;3.50;99.90
18884;DHT22;9574;47.282;9.640;2022-12-10T10:12:54;3.50;99.90
18884;DHT22;9574;47.282;9.640;2022-12-10T10:15:27;3.50;99.90
18884;DHT22;9574;47.282;9.640;2022-12-10T10:18:01;3.50;99.90
18884;DHT22;9574;47.282;9.640;2022-12-10T10:20:49;3.50;99.90
18884;DHT22;9574;47.282;9.640;2022-12-10T10:23:18;3.50;99.90
18884;DHT22;9574;47.282;9.640;2022-12-10T10:25:45;3.50;99.90
18884;DHT22;9574;47.282;9.640;2022-12-10T10:28:18;3.40;99.90
18884;DHT22;9574;47.282;9.640;2022-12-10T10:30:46;3.50;99.90
18884;DHT22;9574;47.282;9.640;2022-12-10T10:33:15;3.50;99.90
18884;DHT22;9574;47.282;9.640;2022-12-10T10:35:47;3.50;99.90
18884;DHT22;9574;47.282;9.640;2022-12-10T10:38:18;3.40;99.90
18884;DHT22;9574;47.282;9.640;2022-12-10T10:40:50;3.40;99.90
18884;DHT22;9574;47.282;9.640;2022-12-10T10:43:23;3.30;99.90
18884;DHT22;9574;47.282;9.640;2022-12-10T10:45:58;3.20;99.90
18884;DHT22;9574;47.282;9.640;2022-12-10T10:48:27;3.20;99.90
18884;DHT22;9574;47.282;9.640;2022-12-10T10:51:04;3.30;99.90
18884;DHT22;9574;47.282;9.640;2022-12-10T10:53:39;3.30;99.90
18884;DHT22;9574;47.282;9.640;2022-12-10T10:56:09;3.30;99.90
18884;DHT22;9574;47.282;9.640;2022-12-10T10:58:49;3.30;99.90
18884;DHT22;9574;47.282;9.640;2022-12-10T11:01:19;3.10;99.90
18884;DHT22;9574;47.282;9.640;2022-12-10T11:03:48;3.10;99.90
18884;DHT22;9574;47.282;9.640;2022-12-10T11:06:16;3.20;99.90
18884;DHT22;9574;47.282;9.640;2022-12-10T11:08:47;3.00;99.90
18884;DHT22;9574;47.282;9.640;2022-12-10T11:11:19;2.90;99.90
18884;DHT22;9574;47.282;9.640;2022-12-10T11:13:46;3.00;99.90
18884;DHT22;9574;47.282;9.640;2022-12-10T11:16:20;3.00;99.90
18884;DHT22;9574;47.282;9.640;2022-12-10T11:18:56;3.00;99.90
18884;DHT22;9574;47.282;9.640;2022-12-10T11:21:27;2.80;99.90
18884;DHT22;9574;47.282;9.640;2022-12-10T11:23:56;2.60;99.90
18884;DHT22;9574;47.282;9.640;2022-12-10T11:26:36;2.60;99.90
18884;DHT22;9574;47.282;9.640;2022-12-10T11:29:16;2.60;99.90
18884;DHT22;9574;47.282;9.640;2022-12-10T11:31:58;2.70;99.90
18884;DHT22;9574;47.282;9.640;2022-12-10T11:34:38;2.90;99.90
18884;DHT22;9574;47.282;9.640;2022-12-10T11:37:18;2.70;99.90
18884;DHT22;9574;47.282;9.640;2022-12-10T11:40:02;2.70;99.90
18884;DHT22;9574;47.282;9.640;2022-12-10T11:42:41;2.90;99.90
18884;DHT22;9574;47.282;9.640;2022-12-10T11:45:17;3.00;99.90
18884;DHT22;9574;47.282;9.640;2022-12-10T11:47:56;3.10;99.90
18884;DHT22;9574;47.282;9.640;2022-12-10T11:50:37;3.00;99.90
18884;DHT22;9574;47.282;9.640;2022-12-10T11:53:16;3.10;99.90
18884;DHT22;9574;47.282;9.640;2022-12-10T11:55:51;2.80;99.90
18884;DHT22;9574;47.282;9.640;2022-12-10T11:58:35;2.80;99.90
18884;DHT22;9574;47.282;9.640;2022-12-10T12:01:12;2.70;99.90
18884;DHT22;9574;47.282;9.640;2022-12-10T12:04:04;2.70;99.90
18884;DHT22;9574;47.282;9.640;2022-12-10T12:06:54;2.80;99.90
18884;DHT22;9574;47.282;9.640;2022-12-10T12:09:30;2.80;99.90
18884;DHT22;9574;47.282;9.640;2022-12-10T12:12:14;2.80;99.90
18884;DHT22;9574;47.282;9.640;2022-12-10T12:14:49;2.90;99.90
18884;DHT22;9574;47.282;9.640;2022-12-10T12:17:21;2.70;99.90
18884;DHT22;9574;47.282;9.640;2022-12-10T12:19:53;2.80;99.90
18884;DHT22;9574;47.282;9.640;2022-12-10T12:22:23;2.90;99.90
18884;DHT22;9574;47.282;9.640;2022-12-10T12:24:55;2.80;99.90
18884;DHT22;9574;47.282;9.640;2022-12-10T12:27:29;2.80;99.90
18884;DHT22;9574;47.282;9.640;2022-12-10T12:30:05;2.90;99.90
18884;DHT22;9574;47.282;9.640;2022-12-10T12:32:41;2.90;99.90
18884;DHT22;9574;47.282;9.640;2022-12-10T12:35:14;2.90;99.90
18884;DHT22;9574;47.282;9.640;2022-12-10T12:37:47;2.80;99.90
18884;DHT22;9574;47.282;9.640;2022-12-10T12:40:23;2.70;99.90
18884;DHT22;9574;47.282;9.640;2022-12-10T12:42:54;2.60;99.90
18884;DHT22;9574;47.282;9.640;2022-12-10T12:45:30;2.60;99.90
18884;DHT22;9574;47.282;9.640;2022-12-10T12:48:02;2.50;99.90
18884;DHT22;9574;47.282;9.640;2022-12-10T12:50:42;2.40;99.90
18884;DHT22;9574;47.282;9.640;2022-12-10T12:53:12;2.40;99.90
18884;DHT22;9574;47.282;9.640;2022-12-10T12:55:45;2.40;99.90
18884;DHT22;9574;47.282;9.640;2022-12-10T12:58:22;2.40;99.90
18884;DHT22;9574;47.282;9.640;2022-12-10T13:00:55;2.20;99.90
18884;DHT22;9574;47.282;9.640;2022-12-10T13:03:33;2.30;99.90
18884;DHT22;9574;47.282;9.640;2022-12-10T13:06:21;2.40;99.90
18884;DHT22;9574;47.282;9.640;2022-12-10T13:08:52;2.40;99.90
18884;DHT22;9574;47.282;9.640;2022-12-10T13:11:30;2.20;99.90
18884;DHT22;9574;47.282;9.640;2022-12-10T13:14:28;2.20;99.90
18884;DHT22;9574;47.282;9.640;2022-12-10T13:17:07;2.20;99.90
18884;DHT22;9574;47.282;9.640;2022-12-10T13:19:34;2.30;99.90
18884;DHT22;9574;47.282;9.640;2022-12-10T13:22:06;2.40;99.90
18884;DHT22;9574;47.282;9.640;2022-12-10T13:27:40;2.50;99.90
18884;DHT22;9574;47.282;9.640;2022-12-10T13:30:34;2.40;99.90
18884;DHT22;9574;47.282;9.640;2022-12-10T13:33:10;2.40;99.90
18884;DHT22;9574;47.282;9.640;2022-12-10T13:35:50;2.50;99.90
18884;DHT22;9574;47.282;9.640;2022-12-10T13:38:22;2.50;99.90
18884;DHT22;9574;47.282;9.640;2022-12-10T13:41:02;2.40;99.90
18884;DHT22;9574;47.282;9.640;2022-12-10T13:43:55;2.50;99.90
18884;DHT22;9574;47.282;9.640;2022-12-10T13:46:58;2.30;99.90
18884;DHT22;9574;47.282;9.640;2022-12-10T13:49:27;2.30;99.90
18884;DHT22;9574;47.282;9.640;2022-12-10T13:51:58;2.40;99.90
18884;DHT22;9574;47.282;9.640;2022-12-10T13:55:17;2.50;99.90
18884;DHT22;9574;47.282;9.640;2022-12-10T14:00:47;2.50;99.90
18884;DHT22;9574;47.282;9.640;2022-12-10T14:06:16;2.30;99.90
18884;DHT22;9574;47.282;9.640;2022-12-10T14:08:55;2.30;99.90
18884;DHT22;9574;47.282;9.640;2022-12-10T14:11:28;2.20;99.90
18884;DHT22;9574;47.282;9.640;2022-12-10T14:14:00;2.20;99.90
18884;DHT22;9574;47.282;9.640;2022-12-10T14:16:30;2.20;99.90
18884;DHT22;9574;47.282;9.640;2022-12-10T14:19:00;2.10;99.90
18884;DHT22;9574;47.282;9.640;2022-12-10T14:21:35;1.90;99.90
18884;DHT22;9574;47.282;9.640;2022-12-10T14:24:05;1.60;99.90
18884;DHT22;9574;47.282;9.640;2022-12-10T14:26:36;1.50;99.90
18884;DHT22;9574;47.282;9.640;2022-12-10T14:29:17;1.40;99.90
18884;DHT22;9574;47.282;9.640;2022-12-10T14:31:48;1.60;99.90
18884;DHT22;9574;47.282;9.640;2022-12-10T14:34:18;1.60;99.90
18884;DHT22;9574;47.282;9.640;2022-12-10T14:36:49;1.50;99.90
18884;DHT22;9574;47.282;9.640;2022-12-10T14:39:19;1.80;99.90
18884;DHT22;9574;47.282;9.640;2022-12-10T14:41:50;1.90;99.90
18884;DHT22;9574;47.282;9.640;2022-12-10T14:44:18;2.00;99.90
18884;DHT22;9574;47.282;9.640;2022-12-10T14:46:47;2.00;99.90
18884;DHT22;9574;47.282;9.640;2022-12-10T14:49:16;2.00;99.90
18884;DHT22;9574;47.282;9.640;2022-12-10T14:51:46;1.90;99.90
18884;DHT22;9574;47.282;9.640;2022-12-10T14:54:27;1.90;99.90
18884;DHT22;9574;47.282;9.640;2022-12-10T14:57:01;2.10;99.90
18884;DHT22;9574;47.282;9.640;2022-12-10T14:59:31;2.10;99.90
18884;DHT22;9574;47.282;9.640;2022-12-10T15:02:02;2.10;99.90
18884;DHT22;9574;47.282;9.640;2022-12-10T15:04:40;2.00;99.90
18884;DHT22;9574;47.282;9.640;2022-12-10T15:07:12;1.80;99.90
18884;DHT22;9574;47.282;9.640;2022-12-10T15:09:42;1.80;99.90
18884;DHT22;9574;47.282;9.640;2022-12-10T15:12:27;1.90;99.90
18884;DHT22;9574;47.282;9.640;2022-12-10T15:14:56;2.10;99.90
18884;DHT22;9574;47.282;9.640;2022-12-10T15:17:36;2.00;99.90
18884;DHT22;9574;47.282;9.640;2022-12-10T15:20:09;2.00;99.90
18884;DHT22;9574;47.282;9.640;2022-12-10T15:22:36;2.00;99.90
18884;DHT22;9574;47.282;9.640;2022-12-10T15:25:14;2.10;99.90
18884;DHT22;9574;47.282;9.640;2022-12-10T15:27:57;1.90;99.90
18884;DHT22;9574;47.282;9.640;2022-12-10T15:30:33;1.90;99.90
18884;DHT22;9574;47.282;9.640;2022-12-10T15:33:00;2.00;99.90
18884;DHT22;9574;47.282;9.640;2022-12-10T15:35:28;2.00;99.90
18884;DHT22;9574;47.282;9.640;2022-12-10T15:37:55;2.00;99.90
18884;DHT22;9574;47.282;9.640;2022-12-10T15:40:27;1.90;99.90
18884;DHT22;9574;47.282;9.640;2022-12-10T15:43:10;2.00;99.90
18884;DHT22;9574;47.282;9.640;2022-12-10T15:45:40;1.90;99.90
18884;DHT22;9574;47.282;9.640;2022-12-10T15:48:09;1.90;99.90
18884;DHT22;9574;47.282;9.640;2022-12-10T15:50:37;1.90;99.90
18884;DHT22;9574;47.282;9.640;2022-12-10T15:53:05;1.90;99.90
18884;DHT22;9574;47.282;9.640;2022-12-10T15:55:32;1.90;99.90
18884;DHT22;9574;47.282;9.640;2022-12-10T15:58:00;1.80;99.90
18884;DHT22;9574;47.282;9.640;2022-12-10T16:00:27;1.80;99.90
18884;DHT22;9574;47.282;9.640;2022-12-10T16:02:56;1.80;99.90
18884;DHT22;9574;47.282;9.640;2022-12-10T16:05:25;1.80;99.90
18884;DHT22;9574;47.282;9.640;2022-12-10T16:07:55;1.50;99.90
18884;DHT22;9574;47.282;9.640;2022-12-10T16:10:24;1.40;99.90
18884;DHT22;9574;47.282;9.640;2022-12-10T16:12:57;1.30;99.90
18884;DHT22;9574;47.282;9.640;2022-12-10T16:15:29;1.20;99.90
18884;DHT22;9574;47.282;9.640;2022-12-10T16:17:57;1.10;99.90
18884;DHT22;9574;47.282;9.640;2022-12-10T16:20:26;0.90;99.90
18884;DHT22;9574;47.282;9.640;2022-12-10T16:22:54;0.90;99.90
18884;DHT22;9574;47.282;9.640;2022-12-10T16:25:22;0.80;99.90
18884;DHT22;9574;47.282;9.640;2022-12-10T16:27:50;0.70;99.90
18884;DHT22;9574;47.282;9.640;2022-12-10T16:30:18;0.70;99.90
18884;DHT22;9574;47.282;9.640;2022-12-10T16:32:48;0.80;99.90
18884;DHT22;9574;47.282;9.640;2022-12-10T16:35:15;0.90;99.90